Time;durP1;ratioP1;P1;durP2;ratioP2;P2;SDS_P1;SDS_P2;PMS_P1;PMS_P2;Temp;Humidity;BMP_temperature;BMP_pressure;BME280_temperature;BME280_humidity;BME280_pressure;Samples;Min_cycle;Max_cycle;Signal;HPM_P1;HPM_P2
2020/12/19 00:01:10;;;;;;;29.48;13.65;;;5.70;99.10;;;;;;5019039;28;20420;-84
2020/12/19 00:03:36;;;;;;;31.27;15.97;;;5.70;99.10;;;;;;5018775;28;20194;-84
2020/12/19 00:06:06;;;;;;;34.50;15.10;;;5.70;99.10;;;;;;5021669;28;20693;-82
2020/12/19 00:08:31;;;;;;;36.83;13.98;;;5.80;99.10;;;;;;5022542;28;20460;-82
2020/12/19 00:10:57;;;;;;;40.77;15.10;;;5.80;99.10;;;;;;5022254;28;20177;-82
2020/12/19 00:13:23;;;;;;;34.53;14.30;;;5.80;99.10;;;;;;5018630;28;20174;-84
2020/12/19 00:15:48;;;;;;;29.10;12.90;;;5.80;99.10;;;;;;5035803;28;20608;-84
2020/12/19 00:18:14;;;;;;;25.57;13.67;;;5.80;99.10;;;;;;5019822;28;20268;-82
2020/12/19 00:20:40;;;;;;;39.00;13.83;;;5.80;99.10;;;;;;5020063;28;20845;-82
2020/12/19 00:23:05;;;;;;;29.53;13.53;;;5.90;99.10;;;;;;5021010;28;20586;-82
2020/12/19 00:25:31;;;;;;;29.20;13.23;;;5.80;99.10;;;;;;5020464;28;20292;-82
2020/12/19 00:27:57;;;;;;;24.60;13.60;;;5.80;99.10;;;;;;5019811;28;20292;-82
2020/12/19 00:30:23;;;;;;;25.33;13.00;;;5.80;99.10;;;;;;5020416;28;20413;-81
2020/12/19 00:32:48;;;;;;;31.47;13.73;;;5.80;99.10;;;;;;5019966;28;20174;-82
2020/12/19 00:35:14;;;;;;;25.83;13.07;;;5.80;99.00;;;;;;5038181;28;20428;-82
2020/12/19 00:37:42;;;;;;;30.40;13.47;;;5.80;98.80;;;;;;5020980;28;20170;-82
2020/12/19 00:40:08;;;;;;;35.63;14.52;;;5.70;99.00;;;;;;5020574;28;20486;-82
2020/12/19 00:42:38;;;;;;;28.52;13.75;;;5.60;99.10;;;;;;5019305;28;20170;-82
2020/12/19 00:45:06;;;;;;;23.48;13.00;;;5.70;99.10;;;;;;5019808;28;20264;-82
2020/12/19 00:47:36;;;;;;;33.92;14.30;;;5.70;99.10;;;;;;5020412;28;20617;-82
2020/12/19 00:50:04;;;;;;;31.83;13.80;;;5.60;99.00;;;;;;5019122;28;20201;-82
2020/12/19 00:52:30;;;;;;;39.15;14.68;;;5.50;99.10;;;;;;5021426;28;20576;-82
2020/12/19 00:54:55;;;;;;;26.33;11.97;;;5.50;99.10;;;;;;5018170;28;20323;-82
2020/12/19 00:57:21;;;;;;;23.97;12.07;;;5.50;99.10;;;;;;5020446;28;20234;-83
2020/12/19 00:59:47;;;;;;;30.33;13.70;;;5.50;99.10;;;;;;5023198;28;20285;-84
2020/12/19 01:02:12;;;;;;;22.27;11.60;;;5.50;99.10;;;;;;5022837;28;20700;-83
2020/12/19 01:04:38;;;;;;;24.23;12.30;;;5.50;99.10;;;;;;5020673;28;20413;-84
2020/12/19 01:07:08;;;;;;;24.70;12.93;;;5.50;99.10;;;;;;5017129;28;20220;-84
2020/12/19 01:09:34;;;;;;;26.75;12.98;;;5.40;99.10;;;;;;5017553;28;20408;-83
2020/12/19 01:12:00;;;;;;;21.57;12.33;;;5.30;99.10;;;;;;5019030;28;20170;-82
2020/12/19 01:14:25;;;;;;;30.43;14.60;;;5.30;99.10;;;;;;5017453;28;20827;-82
2020/12/19 01:16:51;;;;;;;34.43;15.10;;;5.30;99.10;;;;;;5017870;28;20436;-82
2020/12/19 01:19:17;;;;;;;33.63;15.20;;;5.20;99.10;;;;;;5017603;28;20194;-82
2020/12/19 01:21:42;;;;;;;33.70;15.07;;;5.20;99.10;;;;;;5102362;23;20215;-86
2020/12/19 01:24:08;;;;;;;29.83;13.60;;;5.20;99.10;;;;;;5080417;28;20378;-85
2020/12/19 01:26:34;;;;;;;29.93;15.37;;;5.10;99.10;;;;;;5078639;28;20555;-84
2020/12/19 01:29:00;;;;;;;44.93;15.67;;;5.00;99.10;;;;;;5079371;28;20199;-85
2020/12/19 01:31:25;;;;;;;30.63;14.67;;;5.00;99.10;;;;;;5079257;28;20187;-86
2020/12/19 01:33:51;;;;;;;33.90;14.10;;;4.90;99.10;;;;;;5078150;28;20217;-86
2020/12/19 01:36:22;;;;;;;36.33;17.42;;;4.90;99.10;;;;;;5078593;28;20196;-86
2020/12/19 01:38:49;;;;;;;40.65;16.52;;;4.90;99.10;;;;;;5078568;28;20174;-86
2020/12/19 01:41:16;;;;;;;32.35;14.55;;;4.90;99.10;;;;;;5078177;28;20260;-85
2020/12/19 01:43:57;;;;;;;34.50;15.82;;;4.80;99.10;;;;;;5078853;28;20693;-85
2020/12/19 01:46:33;;;;;;;35.30;17.58;;;4.80;99.10;;;;;;5079280;28;20199;-85
2020/12/19 01:49:01;;;;;;;41.58;15.45;;;4.80;99.10;;;;;;5078558;28;20202;-86
2020/12/19 01:51:28;;;;;;;24.15;13.38;;;4.80;99.10;;;;;;5078439;28;20518;-86
2020/12/19 01:53:54;;;;;;;41.03;16.60;;;4.80;99.10;;;;;;5078758;28;20168;-85
2020/12/19 01:56:39;;;;;;;34.40;15.18;;;4.80;99.10;;;;;;5078564;28;20214;-85
2020/12/19 01:59:05;;;;;;;31.10;14.52;;;4.80;99.10;;;;;;5078884;28;20175;-85
2020/12/19 02:01:31;;;;;;;31.98;15.10;;;4.80;99.10;;;;;;5078762;28;20516;-85
2020/12/19 02:03:57;;;;;;;29.42;14.43;;;4.80;99.10;;;;;;5078911;28;20175;-85
2020/12/19 02:06:24;;;;;;;34.90;14.97;;;4.80;99.10;;;;;;5079040;28;20564;-85
2020/12/19 02:08:52;;;;;;;30.75;14.05;;;4.80;99.10;;;;;;5078257;28;20174;-84
2020/12/19 02:11:21;;;;;;;31.10;13.65;;;4.80;99.10;;;;;;5079346;28;20651;-86
2020/12/19 02:13:47;;;;;;;32.10;14.48;;;4.80;99.10;;;;;;5078722;28;20206;-85
2020/12/19 02:16:17;;;;;;;30.30;15.70;;;4.70;99.10;;;;;;5078832;28;20561;-85
2020/12/19 02:18:43;;;;;;;41.85;15.43;;;4.70;99.10;;;;;;5079050;28;20453;-85
2020/12/19 02:21:09;;;;;;;37.70;15.68;;;4.60;99.10;;;;;;5078276;28;20167;-85
2020/12/19 02:23:35;;;;;;;32.40;13.63;;;4.60;99.10;;;;;;5079083;28;20199;-85
2020/12/19 02:26:01;;;;;;;22.97;12.37;;;4.70;99.10;;;;;;5078207;28;20463;-85
2020/12/19 02:28:26;;;;;;;26.40;13.03;;;4.70;99.10;;;;;;5078291;28;20456;-85
2020/12/19 02:30:52;;;;;;;30.47;13.57;;;4.80;99.10;;;;;;5077557;28;20444;-86
2020/12/19 02:33:18;;;;;;;27.90;12.33;;;4.80;99.10;;;;;;5078328;28;20167;-85
2020/12/19 02:35:44;;;;;;;29.10;12.90;;;4.80;99.10;;;;;;5077925;28;20443;-85
2020/12/19 02:38:09;;;;;;;26.40;13.27;;;4.80;99.10;;;;;;5078311;28;20446;-85
2020/12/19 02:40:35;;;;;;;28.53;13.67;;;4.80;99.10;;;;;;5077474;28;20171;-84
2020/12/19 02:43:01;;;;;;;29.47;14.10;;;4.80;99.10;;;;;;5077835;28;20197;-85
2020/12/19 02:45:27;;;;;;;27.17;13.00;;;4.80;99.10;;;;;;5078048;28;20771;-85
2020/12/19 02:47:52;;;;;;;30.20;13.30;;;4.80;99.10;;;;;;5078131;28;20191;-85
2020/12/19 02:50:18;;;;;;;31.40;14.20;;;4.80;99.10;;;;;;5078185;28;20171;-85
2020/12/19 02:52:44;;;;;;;38.93;16.23;;;4.80;99.10;;;;;;5077253;28;20168;-86
2020/12/19 02:55:09;;;;;;;33.07;14.83;;;4.70;99.10;;;;;;5078336;28;20194;-85
2020/12/19 02:57:35;;;;;;;32.23;14.57;;;4.60;99.10;;;;;;5077760;28;20198;-85
2020/12/19 03:00:01;;;;;;;36.73;14.57;;;4.50;99.10;;;;;;5077331;28;20183;-85
2020/12/19 03:02:27;;;;;;;35.07;14.70;;;4.40;99.10;;;;;;5095307;28;20168;-85
2020/12/19 03:04:52;;;;;;;36.00;15.87;;;4.40;99.10;;;;;;5077504;28;20425;-85
2020/12/19 03:07:18;;;;;;;37.60;16.23;;;4.40;99.10;;;;;;5077355;28;20186;-85
2020/12/19 03:09:44;;;;;;;28.77;15.07;;;4.30;99.10;;;;;;5077292;28;20217;-85
2020/12/19 03:12:10;;;;;;;24.77;14.30;;;4.30;99.10;;;;;;5076918;28;20308;-85
2020/12/19 03:14:35;;;;;;;36.37;17.03;;;4.20;99.10;;;;;;5076567;28;20421;-86
2020/12/19 03:17:01;;;;;;;38.73;15.53;;;4.20;99.10;;;;;;5076597;28;20487;-86
2020/12/19 03:19:27;;;;;;;31.20;15.00;;;4.20;99.10;;;;;;5076787;28;20417;-85
2020/12/19 03:21:52;;;;;;;29.30;14.57;;;4.20;99.10;;;;;;5081047;28;20487;-85
2020/12/19 03:24:18;;;;;;;37.27;14.07;;;4.20;99.10;;;;;;5081462;28;20697;-86
2020/12/19 03:26:44;;;;;;;29.77;13.97;;;4.20;99.10;;;;;;5080733;28;20683;-85
2020/12/19 03:29:10;;;;;;;28.57;14.57;;;4.20;99.10;;;;;;5080819;28;20174;-86
2020/12/19 03:31:35;;;;;;;32.80;14.80;;;4.20;99.10;;;;;;5081133;28;20168;-85
2020/12/19 03:34:01;;;;;;;41.60;17.30;;;4.30;99.10;;;;;;5080618;28;20434;-85
2020/12/19 03:36:27;;;;;;;21.83;13.43;;;4.30;99.10;;;;;;5080799;28;20459;-85
2020/12/19 03:38:53;;;;;;;26.40;13.87;;;4.40;99.10;;;;;;5080912;28;20414;-85
2020/12/19 03:41:18;;;;;;;26.30;13.37;;;4.40;99.10;;;;;;5081084;28;20452;-85
2020/12/19 03:43:44;;;;;;;32.97;13.57;;;4.40;99.10;;;;;;5080460;28;20249;-85
2020/12/19 03:46:11;;;;;;;26.53;12.93;;;4.40;99.10;;;;;;5080549;28;20432;-85
2020/12/19 03:48:37;;;;;;;29.85;13.95;;;4.40;99.10;;;;;;5080834;28;20248;-85
2020/12/19 03:51:03;;;;;;;26.57;12.30;;;4.40;99.10;;;;;;5080901;28;20195;-85
2020/12/19 03:53:29;;;;;;;25.57;13.80;;;4.40;99.10;;;;;;5080960;28;20179;-86
2020/12/19 03:55:55;;;;;;;23.30;12.80;;;4.30;99.10;;;;;;5080780;28;20191;-85
2020/12/19 03:58:21;;;;;;;27.40;14.15;;;4.20;99.10;;;;;;5080095;28;20224;-85
2020/12/19 04:00:46;;;;;;;28.57;12.83;;;4.20;99.10;;;;;;5080495;28;20184;-86
2020/12/19 04:03:12;;;;;;;25.83;12.60;;;4.20;99.10;;;;;;5080587;28;20772;-85
2020/12/19 04:05:38;;;;;;;32.47;13.27;;;4.20;99.10;;;;;;5080390;28;20602;-86
2020/12/19 04:08:04;;;;;;;28.80;12.87;;;4.20;99.10;;;;;;5080215;28;20623;-85
2020/12/19 04:10:29;;;;;;;25.23;11.80;;;4.20;99.10;;;;;;5080470;28;20525;-85
2020/12/19 04:12:55;;;;;;;24.30;12.30;;;4.20;99.10;;;;;;5080374;28;20501;-85
2020/12/19 04:15:24;;;;;;;23.63;12.50;;;4.20;99.10;;;;;;5080282;28;20485;-86
2020/12/19 04:17:52;;;;;;;37.88;13.00;;;4.10;99.10;;;;;;5080546;28;20483;-85
2020/12/19 04:20:18;;;;;;;26.48;12.90;;;4.10;99.10;;;;;;5080378;28;20194;-86
2020/12/19 04:22:44;;;;;;;28.95;12.95;;;4.10;99.10;;;;;;5079823;28;20274;-85
2020/12/19 04:25:10;;;;;;;26.53;12.37;;;4.10;99.10;;;;;;5080463;28;20217;-86
2020/12/19 04:27:38;;;;;;;27.48;14.05;;;4.10;99.10;;;;;;5080070;28;20503;-85
2020/12/19 04:30:05;;;;;;;29.88;12.80;;;4.10;99.10;;;;;;5080335;28;20174;-85
2020/12/19 04:32:31;;;;;;;33.83;14.40;;;4.10;99.10;;;;;;5079786;28;20391;-84
2020/12/19 04:34:57;;;;;;;27.43;13.17;;;4.10;99.10;;;;;;5080455;28;20164;-84
2020/12/19 04:37:23;;;;;;;24.73;11.93;;;4.00;99.10;;;;;;5080521;28;20410;-84
2020/12/19 04:39:49;;;;;;;27.00;13.00;;;4.10;99.10;;;;;;5080119;28;20632;-84
2020/12/19 04:42:15;;;;;;;29.67;13.50;;;4.10;99.10;;;;;;5080226;28;20178;-84
2020/12/19 04:44:41;;;;;;;31.13;12.67;;;4.00;99.10;;;;;;5080519;28;20184;-84
2020/12/19 04:47:07;;;;;;;29.40;14.30;;;4.00;99.10;;;;;;5080124;28;20461;-83
2020/12/19 04:49:35;;;;;;;33.22;14.93;;;4.00;99.10;;;;;;5081070;28;20410;-84
2020/12/19 04:52:01;;;;;;;27.50;13.27;;;3.90;99.10;;;;;;5098623;28;20160;-85
2020/12/19 04:54:28;;;;;;;27.25;12.27;;;3.70;99.10;;;;;;5080619;28;20663;-85
2020/12/19 04:56:55;;;;;;;28.92;15.30;;;3.70;99.10;;;;;;5080215;28;20199;-84
2020/12/19 04:59:22;;;;;;;25.98;13.00;;;3.50;99.10;;;;;;5080258;28;20539;-85
2020/12/19 05:01:47;;;;;;;26.55;14.32;;;3.50;99.10;;;;;;5080081;28;20168;-85
2020/12/19 05:04:14;;;;;;;36.73;13.90;;;3.50;99.10;;;;;;5080462;28;20182;-85
2020/12/19 05:06:40;;;;;;;29.05;13.65;;;3.60;99.10;;;;;;5080094;28;20437;-85
2020/12/19 05:09:06;;;;;;;33.97;15.82;;;3.60;99.10;;;;;;5080324;28;20174;-85
2020/12/19 05:11:31;;;;;;;31.17;14.13;;;3.60;99.10;;;;;;5080618;28;20239;-85
2020/12/19 05:13:57;;;;;;;30.13;14.43;;;3.60;99.10;;;;;;5080858;28;20489;-85
2020/12/19 05:16:23;;;;;;;23.55;12.30;;;3.60;99.10;;;;;;5080032;28;20433;-85
2020/12/19 05:18:49;;;;;;;32.30;14.93;;;3.60;99.10;;;;;;5082873;28;20178;-85
2020/12/19 05:21:15;;;;;;;30.93;13.67;;;3.60;99.10;;;;;;5080619;28;20895;-85
2020/12/19 05:23:43;;;;;;;29.70;13.05;;;3.50;99.10;;;;;;5080338;28;20414;-84
2020/12/19 05:26:11;;;;;;;26.30;12.65;;;3.50;99.10;;;;;;5079821;28;20198;-85
2020/12/19 05:28:41;;;;;;;36.83;13.85;;;3.50;99.10;;;;;;5080048;28;20195;-84
2020/12/19 05:31:09;;;;;;;28.90;12.90;;;3.40;99.10;;;;;;5079792;28;20172;-85
2020/12/19 05:33:37;;;;;;;24.48;12.90;;;3.50;99.10;;;;;;5079498;28;20639;-84
2020/12/19 05:36:05;;;;;;;25.63;13.25;;;3.50;99.10;;;;;;5080131;28;20188;-85
2020/12/19 05:38:37;;;;;;;24.15;12.80;;;3.50;99.10;;;;;;5078903;28;20172;-85
2020/12/19 05:41:03;;;;;;;30.48;13.80;;;3.50;99.10;;;;;;5079146;28;20211;-86
2020/12/19 05:43:28;;;;;;;20.67;13.00;;;3.50;99.10;;;;;;5079404;28;20179;-86
2020/12/19 05:45:54;;;;;;;38.80;14.70;;;3.40;99.10;;;;;;5079864;28;20199;-85
2020/12/19 05:48:20;;;;;;;29.30;12.90;;;3.40;99.10;;;;;;5078808;28;20227;-85
2020/12/19 05:50:46;;;;;;;29.33;14.67;;;3.50;99.10;;;;;;5078727;28;20488;-85
2020/12/19 05:53:13;;;;;;;25.77;13.70;;;3.50;99.10;;;;;;5078348;28;20409;-85
2020/12/19 05:55:39;;;;;;;30.38;13.13;;;3.50;99.10;;;;;;5078894;28;20444;-86
2020/12/19 05:58:05;;;;;;;27.17;12.97;;;3.30;99.10;;;;;;5079705;28;20168;-85
2020/12/19 06:00:32;;;;;;;31.52;14.15;;;3.40;99.10;;;;;;5079393;28;20471;-85
2020/12/19 06:03:02;;;;;;;25.17;12.48;;;3.40;99.10;;;;;;5079220;28;20586;-85
2020/12/19 06:05:30;;;;;;;26.60;11.60;;;3.30;99.10;;;;;;5079355;28;20383;-85
2020/12/19 06:07:57;;;;;;;29.70;13.07;;;3.30;99.10;;;;;;5078216;28;20199;-85
2020/12/19 06:10:23;;;;;;;38.60;13.98;;;3.20;99.10;;;;;;5079141;28;20534;-85
2020/12/19 06:13:15;;;;;;;22.57;12.77;;;3.20;99.10;;;;;;5079123;28;20193;-84
2020/12/19 06:15:52;;;;;;;30.77;13.57;;;3.30;99.10;;;;;;5078728;28;20508;-86
2020/12/19 06:18:41;;;;;;;26.25;12.25;;;3.30;99.10;;;;;;5078580;28;20261;-84
2020/12/19 06:21:08;;;;;;;25.95;12.93;;;3.30;99.10;;;;;;5079112;28;20210;-85
2020/12/19 06:23:35;;;;;;;24.17;12.13;;;3.30;99.10;;;;;;5079009;28;20206;-85
2020/12/19 06:26:01;;;;;;;34.80;13.15;;;3.40;99.10;;;;;;5079031;28;20721;-85
2020/12/19 06:28:42;;;;;;;20.40;11.65;;;3.40;99.10;;;;;;5078732;28;20222;-85
2020/12/19 06:31:17;;;;;;;21.75;11.65;;;3.40;99.10;;;;;;5079454;28;20168;-85
2020/12/19 06:33:48;;;;;;;23.70;13.38;;;3.40;99.10;;;;;;5079502;28;20222;-85
2020/12/19 06:36:28;;;;;;;29.42;13.45;;;3.50;99.10;;;;;;5079976;28;20686;-85
2020/12/19 06:39:09;;;;;;;25.20;12.18;;;3.50;99.10;;;;;;5080037;28;20174;-85
2020/12/19 06:41:43;;;;;;;26.95;12.93;;;3.40;99.10;;;;;;5078420;28;20172;-85
2020/12/19 06:44:12;;;;;;;31.20;12.23;;;3.40;99.10;;;;;;5079394;28;20206;-85
2020/12/19 06:46:38;;;;;;;27.55;12.77;;;3.40;99.10;;;;;;5078398;28;20611;-85
2020/12/19 06:49:22;;;;;;;30.02;14.73;;;3.30;99.10;;;;;;5077940;28;20164;-85
2020/12/19 06:52:00;;;;;;;38.30;14.02;;;3.20;99.10;;;;;;5078518;28;20167;-85
2020/12/19 06:54:47;;;;;;;23.92;12.43;;;3.20;99.10;;;;;;5079143;28;20217;-84
2020/12/19 06:57:30;;;;;;;29.90;14.05;;;3.20;99.10;;;;;;5082153;28;20199;-84
2020/12/19 07:00:15;;;;;;;45.38;12.63;;;3.20;99.10;;;;;;5082570;28;20254;-84
2020/12/19 07:03:07;;;;;;;29.00;13.75;;;3.20;99.10;;;;;;5083191;28;20235;-84
2020/12/19 07:05:35;;;;;;;28.90;13.60;;;3.10;99.10;;;;;;5078346;28;20200;-85
2020/12/19 07:08:20;;;;;;;30.30;14.05;;;3.10;99.10;;;;;;5082529;28;20281;-84
2020/12/19 07:10:47;;;;;;;29.27;12.48;;;3.10;99.10;;;;;;5082196;28;20168;-84
2020/12/19 07:13:13;;;;;;;29.17;13.27;;;3.00;99.10;;;;;;5082635;28;20175;-84
2020/12/19 07:15:52;;;;;;;33.85;12.75;;;3.00;99.10;;;;;;5082495;28;20556;-84
2020/12/19 07:18:24;;;;;;;26.05;11.60;;;3.00;99.10;;;;;;5083536;28;20171;-85
2020/12/19 07:21:01;;;;;;;29.42;12.20;;;3.10;99.10;;;;;;5082456;28;20180;-84
2020/12/19 07:23:28;;;;;;;29.17;12.27;;;3.00;99.10;;;;;;5072327;22;20251;-80
2020/12/19 07:25:54;;;;;;;29.38;14.20;;;3.00;99.10;;;;;;5049250;28;20189;-80
2020/12/19 07:28:19;;;;;;;28.27;13.27;;;3.00;99.10;;;;;;5048490;28;20203;-79
2020/12/19 07:30:46;;;;;;;25.53;13.10;;;3.00;99.10;;;;;;5048385;28;20485;-79
2020/12/19 07:33:12;;;;;;;28.77;13.93;;;3.00;99.10;;;;;;5048609;28;20272;-80
2020/12/19 07:35:38;;;;;;;32.20;14.13;;;3.10;99.10;;;;;;5048604;28;20685;-80
2020/12/19 07:38:05;;;;;;;32.65;16.23;;;3.00;99.10;;;;;;5048638;28;20442;-79
2020/12/19 07:40:31;;;;;;;24.85;12.23;;;3.00;99.10;;;;;;5047627;28;20605;-79
2020/12/19 07:43:06;;;;;;;25.10;12.27;;;3.00;99.10;;;;;;5047972;28;20176;-79
2020/12/19 07:45:33;;;;;;;25.65;13.50;;;3.10;99.10;;;;;;5047409;28;20903;-80
2020/12/19 07:47:59;;;;;;;23.77;13.25;;;3.00;99.10;;;;;;5048278;28;20201;-80
2020/12/19 07:50:29;;;;;;;24.90;12.37;;;3.10;99.10;;;;;;5046875;28;20624;-79
2020/12/19 07:53:21;;;;;;;28.20;13.05;;;3.10;99.10;;;;;;5047443;28;20415;-80
2020/12/19 07:55:52;;;;;;;28.80;13.45;;;3.10;99.10;;;;;;5045178;28;20201;-80
2020/12/19 07:58:19;;;;;;;28.75;13.60;;;3.10;99.10;;;;;;5046573;28;20177;-80
2020/12/19 08:00:44;;;;;;;32.40;14.80;;;3.20;99.10;;;;;;5041141;28;20185;-80
2020/12/19 08:03:11;;;;;;;24.70;13.80;;;3.30;99.10;;;;;;5042658;28;20181;-80
2020/12/19 08:05:37;;;;;;;28.80;13.88;;;3.30;99.10;;;;;;5047921;28;20443;-80
2020/12/19 08:08:03;;;;;;;28.67;13.97;;;3.30;99.10;;;;;;5044920;28;20204;-80
2020/12/19 08:10:29;;;;;;;34.70;14.00;;;3.30;99.10;;;;;;5027373;28;20436;-80
2020/12/19 08:12:54;;;;;;;29.80;14.20;;;3.30;99.10;;;;;;5026786;28;20170;-80
2020/12/19 08:15:25;;;;;;;29.13;15.10;;;3.30;99.10;;;;;;5027456;28;20463;-80
2020/12/19 08:17:55;;;;;;;37.50;17.02;;;3.30;99.10;;;;;;5028014;28;20424;-80
2020/12/19 08:20:29;;;;;;;42.55;17.45;;;3.20;99.10;;;;;;5027960;28;20182;-80
2020/12/19 08:22:59;;;;;;;37.78;18.13;;;3.20;99.10;;;;;;5028149;28;20190;-80
2020/12/19 08:25:25;;;;;;;31.60;15.73;;;3.30;99.10;;;;;;5046373;28;20212;-80
2020/12/19 08:27:51;;;;;;;36.53;17.07;;;3.40;99.10;;;;;;5045257;28;20265;-80
2020/12/19 08:30:29;;;;;;;34.05;17.52;;;3.40;99.10;;;;;;5047334;28;20445;-80
2020/12/19 08:33:06;;;;;;;34.13;17.27;;;3.50;99.10;;;;;;5046585;28;20569;-80
2020/12/19 08:35:40;;;;;;;35.72;15.70;;;3.60;99.10;;;;;;5037000;28;20192;-80
2020/12/19 08:38:20;;;;;;;35.22;17.90;;;3.70;99.10;;;;;;5047542;28;20169;-81
2020/12/19 08:40:47;;;;;;;36.58;19.73;;;3.70;99.10;;;;;;5046837;28;20177;-80
2020/12/19 08:43:15;;;;;;;41.03;17.42;;;3.80;99.10;;;;;;5048965;28;20180;-80
2020/12/19 08:45:49;;;;;;;38.83;18.35;;;3.90;99.10;;;;;;5040123;28;20190;-80
2020/12/19 08:48:22;;;;;;;33.15;16.48;;;4.00;99.10;;;;;;5029039;28;20229;-80
2020/12/19 08:50:49;;;;;;;33.17;17.27;;;4.10;99.10;;;;;;5027288;28;20292;-80
2020/12/19 08:53:20;;;;;;;48.05;16.88;;;4.10;99.10;;;;;;5028066;28;20166;-80
2020/12/19 08:55:47;;;;;;;35.33;17.17;;;4.20;99.10;;;;;;5027972;28;20239;-80
2020/12/19 08:58:30;;;;;;;35.55;17.92;;;4.30;99.10;;;;;;5027788;28;20292;-80
2020/12/19 09:01:10;;;;;;;33.92;15.65;;;4.40;99.10;;;;;;5028202;28;20173;-80
2020/12/19 09:03:36;;;;;;;31.73;15.73;;;4.50;99.10;;;;;;5042156;28;20173;-80
2020/12/19 09:06:05;;;;;;;31.53;14.83;;;4.60;98.70;;;;;;5046203;28;20201;-80
2020/12/19 09:08:37;;;;;;;25.95;13.68;;;4.70;97.90;;;;;;5039593;28;20514;-80
2020/12/19 09:11:08;;;;;;;20.40;11.15;;;4.80;97.40;;;;;;5027167;28;20177;-80
2020/12/19 09:13:35;;;;;;;23.60;11.45;;;4.80;96.50;;;;;;5026653;28;20174;-78
2020/12/19 09:16:06;;;;;;;23.67;11.55;;;4.90;96.50;;;;;;5045320;28;20609;-80
2020/12/19 09:18:35;;;;;;;18.88;10.57;;;5.00;96.30;;;;;;5025999;28;20188;-80
2020/12/19 09:21:03;;;;;;;22.55;11.18;;;5.10;95.80;;;;;;5026433;28;20178;-80
2020/12/19 09:23:29;;;;;;;22.13;13.40;;;5.10;95.60;;;;;;5026201;28;20704;-80
2020/12/19 09:25:57;;;;;;;22.73;9.93;;;5.20;95.60;;;;;;5026772;28;20194;-80
2020/12/19 09:28:24;;;;;;;21.85;10.27;;;5.30;95.40;;;;;;5027687;28;20201;-80
2020/12/19 09:30:51;;;;;;;20.65;9.88;;;5.30;95.10;;;;;;5027185;28;20178;-80
2020/12/19 09:33:17;;;;;;;22.35;11.45;;;5.30;95.20;;;;;;5028797;28;20169;-80
2020/12/19 09:35:43;;;;;;;21.35;10.18;;;5.40;95.10;;;;;;5027673;28;20186;-80
2020/12/19 09:38:09;;;;;;;20.90;11.75;;;5.40;95.00;;;;;;5046504;28;20215;-80
2020/12/19 09:40:35;;;;;;;23.98;10.35;;;5.50;95.00;;;;;;5047559;28;20180;-81
2020/12/19 09:43:01;;;;;;;20.20;10.30;;;5.50;95.00;;;;;;5042192;28;20183;-82
2020/12/19 09:45:28;;;;;;;21.93;11.90;;;5.60;95.00;;;;;;5038199;28;20280;-84
2020/12/19 09:47:55;;;;;;;19.38;10.40;;;5.70;94.90;;;;;;5038314;28;20452;-84
2020/12/19 09:50:22;;;;;;;22.15;10.27;;;5.70;94.70;;;;;;5038078;28;20176;-84
2020/12/19 09:52:48;;;;;;;22.83;11.40;;;5.80;94.20;;;;;;5037151;28;20614;-84
2020/12/19 09:55:14;;;;;;;16.95;9.73;;;5.70;93.90;;;;;;5036579;28;20276;-84
2020/12/19 09:57:40;;;;;;;24.30;10.93;;;5.80;94.20;;;;;;5036223;28;20173;-83
2020/12/19 10:00:07;;;;;;;18.33;10.10;;;5.80;94.20;;;;;;5037297;28;20169;-82
2020/12/19 10:02:33;;;;;;;22.70;10.88;;;5.80;93.80;;;;;;5037115;28;20470;-82
2020/12/19 10:04:59;;;;;;;24.67;9.63;;;5.90;93.80;;;;;;5037196;28;20648;-82
2020/12/19 10:07:25;;;;;;;17.30;9.20;;;6.00;93.30;;;;;;5036483;28;20219;-83
2020/12/19 10:09:51;;;;;;;17.70;9.07;;;6.10;93.10;;;;;;5018218;28;20420;-84
2020/12/19 10:12:17;;;;;;;24.88;11.48;;;6.10;92.70;;;;;;5033940;28;20177;-81
2020/12/19 10:14:43;;;;;;;25.20;12.25;;;6.20;92.30;;;;;;5037566;28;20177;-81
2020/12/19 10:17:08;;;;;;;21.75;10.82;;;6.20;92.10;;;;;;5039454;28;20189;-80
2020/12/19 10:19:34;;;;;;;23.93;10.37;;;6.30;91.80;;;;;;5044595;28;20196;-80
2020/12/19 10:22:00;;;;;;;18.92;10.43;;;6.30;92.00;;;;;;5041900;28;20455;-81
2020/12/19 10:24:27;;;;;;;23.98;11.05;;;6.30;91.60;;;;;;5020554;28;20185;-82
2020/12/19 10:26:53;;;;;;;17.27;10.90;;;6.30;91.40;;;;;;5035915;28;20250;-84
2020/12/19 10:29:19;;;;;;;21.90;10.00;;;6.40;91.50;;;;;;5033928;28;20272;-84
2020/12/19 10:31:45;;;;;;;19.83;10.32;;;6.40;91.30;;;;;;5035433;28;20847;-83
2020/12/19 10:34:10;;;;;;;21.45;10.13;;;6.50;91.10;;;;;;5035085;28;20173;-82
2020/12/19 10:36:36;;;;;;;18.90;9.87;;;6.50;91.20;;;;;;5034411;28;20195;-83
2020/12/19 10:39:03;;;;;;;19.87;11.10;;;6.60;91.50;;;;;;5035160;28;20177;-84
2020/12/19 10:41:28;;;;;;;20.77;11.40;;;6.70;91.40;;;;;;5034740;28;20833;-83
2020/12/19 10:43:54;;;;;;;22.50;10.53;;;6.80;91.10;;;;;;5035003;28;20173;-85
2020/12/19 10:46:24;;;;;;;18.43;10.57;;;6.90;90.80;;;;;;5034522;28;20435;-84
2020/12/19 10:48:50;;;;;;;20.27;10.15;;;7.00;90.20;;;;;;5035445;28;20447;-84
2020/12/19 10:51:16;;;;;;;24.70;11.47;;;7.00;90.10;;;;;;5035358;28;20236;-83
2020/12/19 10:53:42;;;;;;;25.37;10.93;;;7.10;90.10;;;;;;5034263;28;20449;-84
2020/12/19 10:56:18;;;;;;;18.50;11.15;;;7.20;90.10;;;;;;5034759;28;20718;-83
2020/12/19 10:58:43;;;;;;;19.30;9.98;;;7.30;89.90;;;;;;5034970;28;20168;-83
2020/12/19 11:01:10;;;;;;;23.70;10.27;;;7.40;89.10;;;;;;5036520;28;20548;-81
2020/12/19 11:03:36;;;;;;;24.80;10.88;;;7.40;89.20;;;;;;5036805;28;20416;-81
2020/12/19 11:06:02;;;;;;;16.90;10.60;;;7.50;89.40;;;;;;5036483;28;20280;-81
2020/12/19 11:08:27;;;;;;;18.27;10.63;;;7.60;88.40;;;;;;5035997;28;20451;-84
2020/12/19 11:10:53;;;;;;;22.33;9.53;;;7.60;88.70;;;;;;5034234;28;20169;-84
2020/12/19 11:13:19;;;;;;;22.70;10.90;;;7.70;88.30;;;;;;5037638;28;20411;-83
2020/12/19 11:15:45;;;;;;;22.73;10.97;;;7.80;88.00;;;;;;5034898;28;20446;-84
2020/12/19 11:18:10;;;;;;;21.20;9.90;;;7.90;87.60;;;;;;5034577;28;20183;-84
2020/12/19 11:20:37;;;;;;;22.97;10.30;;;8.00;87.70;;;;;;5034862;28;20407;-84
2020/12/19 11:23:03;;;;;;;17.80;9.90;;;8.00;87.70;;;;;;4997015;28;761204;-82
2020/12/19 11:25:28;;;;;;;16.37;10.17;;;8.10;87.30;;;;;;5030844;28;20193;-82
2020/12/19 11:27:54;;;;;;;23.37;10.73;;;8.20;87.00;;;;;;5036827;28;20466;-80
2020/12/19 11:30:20;;;;;;;15.23;9.60;;;8.30;87.00;;;;;;5036295;28;20181;-82
2020/12/19 11:32:45;;;;;;;16.47;8.53;;;8.30;86.70;;;;;;5035710;28;20267;-81
2020/12/19 11:35:11;;;;;;;20.90;9.53;;;8.40;86.40;;;;;;5037227;28;20262;-81
2020/12/19 11:37:37;;;;;;;21.33;9.83;;;8.50;86.30;;;;;;5037255;28;21054;-82
2020/12/19 11:40:04;;;;;;;15.30;8.93;;;8.60;85.60;;;;;;5037448;28;20415;-81
2020/12/19 11:42:30;;;;;;;17.95;8.85;;;8.60;85.90;;;;;;5040369;28;20514;-83
2020/12/19 11:44:55;;;;;;;18.33;10.43;;;8.70;85.30;;;;;;5040899;28;20700;-81
2020/12/19 11:47:22;;;;;;;14.68;8.93;;;8.80;85.10;;;;;;5040825;28;20486;-81
2020/12/19 11:49:47;;;;;;;17.15;9.57;;;8.80;85.10;;;;;;5040804;28;20595;-81
2020/12/19 11:52:13;;;;;;;16.40;10.13;;;8.90;84.60;;;;;;5043403;28;20263;-82
2020/12/19 11:54:40;;;;;;;19.03;10.57;;;9.00;85.10;;;;;;5040449;28;20660;-84
2020/12/19 11:57:06;;;;;;;20.33;8.93;;;9.10;84.60;;;;;;5038412;28;20283;-83
2020/12/19 11:59:32;;;;;;;16.27;8.93;;;9.20;84.20;;;;;;5038754;28;20184;-86
2020/12/19 12:02:02;;;;;;;22.95;10.68;;;9.20;84.20;;;;;;5038382;28;20676;-85
2020/12/19 12:04:28;;;;;;;18.83;10.25;;;9.30;84.20;;;;;;5038288;28;20252;-85
2020/12/19 12:06:54;;;;;;;16.98;9.60;;;9.40;82.80;;;;;;5037950;28;20680;-86
2020/12/19 12:09:20;;;;;;;29.57;11.00;;;9.50;82.70;;;;;;5038514;28;20172;-83
2020/12/19 12:11:46;;;;;;;21.07;11.27;;;9.60;82.80;;;;;;5038843;28;20462;-83
2020/12/19 12:14:12;;;;;;;24.38;10.05;;;9.80;83.40;;;;;;5038637;28;20427;-84
2020/12/19 12:16:38;;;;;;;21.77;9.70;;;9.90;83.10;;;;;;5037155;28;20546;-84
2020/12/19 12:19:03;;;;;;;18.40;9.93;;;10.00;82.00;;;;;;5037883;28;20416;-85
2020/12/19 12:21:37;;;;;;;25.03;9.77;;;10.10;81.70;;;;;;5038435;28;20169;-87
2020/12/19 12:24:04;;;;;;;19.10;10.98;;;10.20;81.00;;;;;;5037856;28;20434;-84
2020/12/19 12:26:30;;;;;;;21.48;10.20;;;10.40;81.20;;;;;;5037793;28;20590;-84
2020/12/19 12:28:56;;;;;;;21.13;10.20;;;10.50;79.80;;;;;;5038113;28;20631;-84
2020/12/19 12:31:27;;;;;;;20.83;10.38;;;10.50;80.30;;;;;;5038384;28;20196;-81
2020/12/19 12:33:53;;;;;;;19.77;10.82;;;10.60;79.60;;;;;;5043930;28;20170;-81
2020/12/19 12:36:20;;;;;;;44.00;17.23;;;10.50;79.90;;;;;;5041998;28;20637;-83
2020/12/19 12:38:47;;;;;;;35.67;15.25;;;10.60;79.90;;;;;;5037562;28;20173;-85
2020/12/19 12:41:12;;;;;;;51.97;20.70;;;10.60;80.30;;;;;;5037133;28;20187;-85